KGUS/GUS METAR and TAF weather

Enter ICAO airport designator
Station Type Date Time Source
KGUS METAR 2020/02/24 07:56 UTC NOAA

KGUS 240756Z AUTO 21009KT 10SM SCT180 03/02 A2993 RMK AO2 SLP142 T00250024 $


Station Type Date Time Source
KGUS Decoded METAR 2020/02/24 07:56 UTC NOAA

Grissom Air Force Base / Peru, IN, United States (KGUS) 40-39N 086-09W
Feb 24, 2020 - 02:56 AM EST / 2020.02.24 0756 UTC
Wind: from the SSW (210 degrees) at 10 MPH (9 KT):0
Visibility: 10 mile(s):0
Sky conditions: partly cloudy
Temperature: 36.5 F (2.5 C)
Dew Point: 36.3 F (2.4 C)
Relative Humidity: 99%
Pressure (altimeter): 29.93 in. Hg (1013 hPa)
ob: KGUS 240756Z AUTO 21009KT 10SM SCT180 03/02 A2993 RMK AO2 SLP142 T00250024
cycle: 8

Station Type Date Time Source
KGUS TAF 2020/02/24 06:32 UTC NOAA

TAF
AMD KGUS 240620Z 2406/2509 20006KT 9999 BKN200 QNH2990INS
BECMG 2411/2412 VRB06KT 9999 SCT009 OVC015 QNH2984INS
BECMG 2414/2416 VRB06KT 9000 -RA OVC005 520604 QNH2971INS TX05/2420Z TN02/2409Z

Example: see airport list